Cherokee

Latest Operating Information
WARNING! Water release schedules can change without notice due to unanticipated weather changes or power system requirements. Large amounts of water could be discharged at any time. Use caution! Obey all posted safety regulations and precautions!  Vital safety information.

Generation Releases

Caption
Day Time Period Generators
6/18/2018 1am - 2am 0
6/18/2018 2am - 3am 1
6/18/2018 3am - 8am 0
6/18/2018 8am - 9am 1
6/18/2018 9am - 1pm 0
6/18/2018 1pm - 9pm 2 or more
6/18/2018 9pm - midnight 0
6/19/2018 midnight - 2am 0
6/19/2018 2am - 3am 1
6/19/2018 3am - 8am 0
6/19/2018 8am - noon 1
6/19/2018 noon - 10pm 2 or more
6/19/2018 10pm - midnight 1
6/20/2018 midnight - 1am 0

Observed Data

Caption
Day Time (Eastern) Reservoir Elevation (behind dam)* Tailwater Elevation (below dam)* Average Hourly Discharge*
6/16/2018 7 PM 1,070.57 927.80 11,836
6/16/2018 8 PM 1,070.53 927.76 11,818
6/16/2018 9 PM 1,070.51 927.76 11,789
6/16/2018 10 PM 1,070.50 925.78 7,505
6/16/2018 11 PM 1,070.51 921.28 256
6/16/2018 midnight 1,070.49 921.14 0
6/17/2018 1 AM 1,070.49 921.13 0
6/17/2018 2 AM 1,070.51 921.13 0
6/17/2018 3 AM 1,070.51 921.76 113
6/17/2018 4 AM 1,070.51 921.56 2,023
6/17/2018 5 AM 1,070.53 921.13 0
6/17/2018 6 AM 1,070.55 921.13 0
6/17/2018 7 AM 1,070.56 921.13 0
6/17/2018 8 AM 1,070.55 921.13 0
6/17/2018 9 AM 1,070.56 921.75 109
6/17/2018 10 AM 1,070.57 921.55 2,024
6/17/2018 11 AM 1,070.58 921.13 0
6/17/2018 noon 1,070.59 921.13 0
6/17/2018 1 PM 1,070.59 921.89 125
6/17/2018 2 PM 1,070.59 925.68 7,162
6/17/2018 3 PM 1,070.57 926.28 7,476
6/17/2018 4 PM 1,070.55 927.68 11,655
6/17/2018 5 PM 1,070.52 927.82 11,797
6/17/2018 6 PM 1,070.50 927.77 11,840
6/17/2018 7 PM 1,070.47 927.78 11,809
6/17/2018 8 PM 1,070.44 927.79 11,827
6/17/2018 9 PM 1,070.42 925.80 7,498
6/17/2018 10 PM 1,070.43 921.28 254
6/17/2018 11 PM 1,070.43 921.13 0
6/17/2018 midnight 1,070.43 921.13 0
6/18/2018 1 AM 1,070.44 921.13 0
6/18/2018 2 AM 1,070.43 921.79 114
6/18/2018 3 AM 1,070.44 921.55 2,020
6/18/2018 4 AM 1,070.46 921.13 0
6/18/2018 5 AM 1,070.48 921.13 0
6/18/2018 6 AM 1,070.49 921.13 0
6/18/2018 7 AM 1,070.49 921.13 0
6/18/2018 8 AM 1,070.49 921.76 109
6/18/2018 9 AM 1,070.51 921.55 2,034
6/18/2018 10 AM 1,070.52 921.13 0
6/18/2018 11 AM 1,070.52 921.12 0
6/18/2018 noon 1,070.52 921.13 0
6/18/2018 1 PM 1,070.52 921.84 130
6/18/2018 2 PM 1,070.51 926.11 7,315
6/18/2018 3 PM 1,070.47 927.75 11,727
6/18/2018 4 PM 1,070.46 927.74 11,790
6/18/2018 5 PM 1,070.43 927.80 11,787
6/18/2018 6 PM 1,070.40 927.79 11,800

Predicted Data

Caption
Day Average Inflow* Midnight Elevation* Average Outflow*
6/18/2018 2,313 1,070.35 3,562
6/19/2018 2,257 1,070.16 5,000
6/20/2018 2,285 1,070.05 3,890

*Elevations are in feet above sea level. Discharges are in cubic feet per second and are reported at the end of the hour.

Notes:

Water release schedules are updated periodically throughout the day. Next-day release schedules are usually available by 6 p.m. of the current day.

Observed water levels also are updated periodically throughout the day. Predicted water levels are updated at least once a day, by 1 p.m. Eastern time, and may be updated more frequently when conditions warrant.

Reservoir Information

Get the most up-to-date information for the reservoirs, including today’s lake levels, predicted elevations, planned releases, reservoir operating guides, ecological health ratings, fish survey results, recreation facilities and more.

 

 

Lake Info App

Want your lake info to go? Download the TVA Lake Info app, an easy-to-use resource for operating on and around reservoirs and dams in the TVA region. Available for iPhone and Android devices.